WetterOnline ( https://www.wetteronline.de )

Wetter aktuell Tuttlingen

Aktuelles Wetter: Klippeneck (975m)

6-stündlich | Neueste Meldungen
Ortszeit Temperatur Wetter
Sa, 25.05. 20:00 13.5° C bedeckt
Sa, 25.05. 14:00 13.1° C leichter Regen
Sa, 25.05. 8:00 10.8° C fast wolkenlos
Sa, 25.05. 2:00 8.3° C fast wolkenlos
Fr, 24.05. 20:00 9.9° C wolkig
Fr, 24.05. 14:00 10.4° C Sprühregen
Fr, 24.05. 8:00 8.7° C bedeckt
Fr, 24.05. 2:00 7.4° C bedeckt
Ortszeit Temperatur Wetter
Sa, 25.05. 23:00 10.3° C wolkig
Sa, 25.05. 22:50 10.3° C wolkig
Sa, 25.05. 22:40 10.0° C bewölkt
Sa, 25.05. 22:30 10.5° C bedeckt
Sa, 25.05. 22:20 10.5° C bedeckt
Sa, 25.05. 22:10 10.6° C bedeckt
Sa, 25.05. 22:00 11.7° C bewölkt
Sa, 25.05. 21:30 11.4° C wolkig
Sa, 25.05. 21:00 12.1° C bewölkt
Sa, 25.05. 20:30 12.8° C bedeckt
Sa, 25.05. 20:00 13.5° C bedeckt
Ortszeit Relative Feuchte Sichtweite
Sa, 25.05. 20:00 62% >70 km
Sa, 25.05. 14:00 61% >70 km
Sa, 25.05. 8:00 70% 55 km
Sa, 25.05. 2:00 92% 35 km
Fr, 24.05. 20:00 84% >70 km
Fr, 24.05. 14:00 84% 60 km
Fr, 24.05. 8:00 90% 40 km
Fr, 24.05. 2:00 96% 35 km
Ortszeit Relative Feuchte Sichtweite
Sa, 25.05. 23:00 80% 60 km
Sa, 25.05. 22:50 80% -
Sa, 25.05. 22:40 84% -
Sa, 25.05. 22:30 83% 65 km
Sa, 25.05. 22:20 83% -
Sa, 25.05. 22:10 82% -
Sa, 25.05. 22:00 73% 65 km
Sa, 25.05. 21:30 75% 60 km
Sa, 25.05. 21:00 73% 55 km
Sa, 25.05. 20:30 66% >70 km
Sa, 25.05. 20:00 62% >70 km
Ortszeit Niederschlagsmenge Niederschlagsart
Sa, 25.05. 20:00 0.2 l/m2 in 12 Std. Regen
Sa, 25.05. 14:00 0.1 l/m2 in 6 Std. Regen
Sa, 25.05. 8:00 0.0 l/m2 in 12 Std. -
Sa, 25.05. 2:00 0.1 l/m2 in 6 Std. -
Fr, 24.05. 20:00 0.6 l/m2 in 12 Std. Regen
Fr, 24.05. 14:00 0.5 l/m2 in 6 Std. Regen
Fr, 24.05. 8:00 5 l/m2 in 12 Std. Regen
Fr, 24.05. 2:00 5 l/m2 in 6 Std. Regen
Ortszeit Niederschlagsmenge Niederschlagsart
Sa, 25.05. 23:00 <0.05 l/m2 in 1 Std. Regen
Sa, 25.05. 22:50 keine Meldung -
Sa, 25.05. 22:40 keine Meldung -
Sa, 25.05. 22:30 <0.05 l/m2 in 30 Min Schneeregen
Sa, 25.05. 22:20 keine Meldung -
Sa, 25.05. 22:10 keine Meldung -
Sa, 25.05. 22:00 0.0 l/m2 in 1 Std. -
Sa, 25.05. 21:30 0.0 l/m2 in 30 Min -
Sa, 25.05. 21:00 0.0 l/m2 in 1 Std. -
Sa, 25.05. 20:30 0.0 l/m2 in 30 Min -
Sa, 25.05. 20:00 0.0 l/m2 in 1 Std. Regen
Ortszeit Stärke Spitze Richtung
km/h Bft. km/h Grad Sektor
Sa, 25.05. 20:00 6 1 20 140° SO
Sa, 25.05. 14:00 6 1 15 230° SW
Sa, 25.05. 8:00 4 1 22 230° SW
Sa, 25.05. 2:00 11 2 17 210° SW
Fr, 24.05. 20:00 4 1 50 280° W
Fr, 24.05. 14:00 7 2 25 350° N
Fr, 24.05. 8:00 4 1 14 320° NW
Fr, 24.05. 2:00 9 2 15 340° N
Ortszeit Stärke Spitze Richtung
km/h Bft. km/h Grad Sektor
Sa, 25.05. 23:00 13 3 15 120° SO
Sa, 25.05. 22:50 13 3 - 120° SO
Sa, 25.05. 22:40 9 2 - 110° O
Sa, 25.05. 22:30 7 2 7 110° O
Sa, 25.05. 22:20 7 2 - 110° O
Sa, 25.05. 22:10 4 1 - 100° O
Sa, 25.05. 22:00 6 1 11 80° O
Sa, 25.05. 21:30 7 2 11 80° O
Sa, 25.05. 21:00 4 1 11 80° O
Sa, 25.05. 20:30 4 1 7 160° S
Sa, 25.05. 20:00 6 1 15 140° SO
Ortszeit Untergrenze Bedeckung Gattung
total tief tief mittel hoch
Sa, 25.05. 20:00 1380 m 8/8 8/8 - - -
Sa, 25.05. 14:00 900 m 7/8 7/8 - - -
Sa, 25.05. 8:00 6600 m 1/8 1/8 - - -
Sa, 25.05. 2:00 7800 m 1/8 0/8 - - -
Fr, 24.05. 20:00 2700 m 7/8 3/8 - - -
Fr, 24.05. 14:00 1320 m 7/8 7/8 - - -
Fr, 24.05. 8:00 1500 m 8/8 8/8 - - -
Fr, 24.05. 2:00 1140 m 8/8 8/8 - - -
Ortszeit Bedeckungsgrad in Achtel und Wolkenuntergrenze
Sa, 25.05. 23:00 4(2100m) 6(3000m)
Sa, 25.05. 22:50 4(2100m) 6(3000m)
Sa, 25.05. 22:40 7
Sa, 25.05. 22:30 1(1080m) 4(1500m) 8(2100m)
Sa, 25.05. 22:20 1(1080m) 4(1500m) 8(2100m)
Sa, 25.05. 22:10 8
Sa, 25.05. 22:00 6(1110m) 7(1800m) 7(2100m)
Sa, 25.05. 21:30 4(1050m) 5(1500m) 6(2700m)
Sa, 25.05. 21:00 6(1080m) 7(1800m)
Sa, 25.05. 20:30 6(1260m) 7(1500m) 8(2400m)
Sa, 25.05. 20:00 2(1380m) 5(1500m) 8(2400m)
Ortszeit Stationsdruck (hPa) Tendenz (hPa in 3 Std.)
Sa, 25.05. 20:00 907 + 0,3
Sa, 25.05. 14:00 907 0,0
Sa, 25.05. 8:00 907 + 0,2
Sa, 25.05. 2:00 907 - 0,5
Fr, 24.05. 20:00 907 + 0,7
Fr, 24.05. 14:00 907 - 0,3
Fr, 24.05. 8:00 907 + 0,2
Fr, 24.05. 2:00 907 - 0,6
Ortszeit Stationsdruck (hPa) Tendenz (hPa in 3 Std.)
Sa, 25.05. 23:00 908 + 0,8
Sa, 25.05. 22:50 908 keine Meldung
Sa, 25.05. 22:40 908 keine Meldung
Sa, 25.05. 22:30 908 + 1,0
Sa, 25.05. 22:20 908 keine Meldung
Sa, 25.05. 22:10 908 keine Meldung
Sa, 25.05. 22:00 908 + 0,9
Sa, 25.05. 21:30 907 + 0,9
Sa, 25.05. 21:00 907 + 0,6
Sa, 25.05. 20:30 907 + 0,3
Sa, 25.05. 20:00 907 + 0,3
Ortszeit Schneehöhe (cm)
Sa, 25.05. 20:00 0
Sa, 25.05. 14:00 0
Sa, 25.05. 8:00 0
Sa, 25.05. 2:00 0
Fr, 24.05. 20:00 0
Fr, 24.05. 14:00 0
Fr, 24.05. 8:00 0
Fr, 24.05. 2:00 0
Ortszeit Schneehöhe (cm)
Sa, 25.05. 23:00 0
Sa, 25.05. 22:50 0
Sa, 25.05. 22:40 -
Sa, 25.05. 22:30 0
Sa, 25.05. 22:20 0
Sa, 25.05. 22:10 -
Sa, 25.05. 22:00 0
Sa, 25.05. 21:30 0
Sa, 25.05. 21:00 0
Sa, 25.05. 20:30 0
Sa, 25.05. 20:00 0
Link zu dieser Seite / Seite empfehlen

Das Wetter in ...